Sunday, October 21, 2018, 10:27 PM EDT
Back to Local

KSFM, Sanford, Sanford Regional Airport

Location: Sanford, ME, United States Lat: 43.4
Local Time: 10:27 PM EDT ( 2:27 GMT) Lon: -70.717
Time Zone: US/Eastern Elev: 242 ft

Show me the last for .
Show Decoded

2018-10-21 21:56 METAR KSFM 220156Z AUTO 29007KT 10SM CLR 01/M07 A3000 RMK AO2 SLP162 T00061067
                 FZRANO =
2018-10-21 20:56 METAR KSFM 220056Z AUTO 28005KT 10SM FEW055 01/M07 A2998 RMK AO2 SLP157 P0004
                 T00111072 FZRANO =
2018-10-21 19:56 METAR KSFM 212356Z AUTO 31005KT 10SM CLR 02/M07 A2996 RMK AO2 SLP149 T00171072
                 10067 20017 51035 FZRANO =
2018-10-21 18:56 METAR KSFM 212256Z AUTO 29007KT 10SM CLR 02/M07 A2993 RMK AO2 SLP141 T00221072
                 FZRANO =
2018-10-21 17:56 METAR KSFM 212156Z AUTO 31009G15KT 10SM SCT048 03/M07 A2989 RMK AO2 PK WND
                 28028/2101 SLP125 T00331067 =
2018-10-21 16:56 METAR KSFM 212056Z AUTO 30015G20KT 10SM OVC050 05/M06 A2985 RMK AO2 SLP114
                 T00501061 53024 =
2018-10-21 15:56 METAR KSFM 211956Z AUTO 31013G22KT 10SM OVC046 05/M05 A2982 RMK AO2 SLP103
                 T00501050 =
2018-10-21 14:56 METAR KSFM 211856Z AUTO 29014G25KT 10SM OVC046 06/M05 A2980 RMK AO2 SLP095
                 T00561050 =
2018-10-21 13:56 METAR KSFM 211756Z AUTO 32015G23KT 10SM OVC046 06/M04 A2978 RMK AO2 PK WND
                 28028/1725 SLP089 T00611044 10078 20044 53008 =
2018-10-21 12:56 METAR KSFM 211656Z AUTO 31013G24KT 10SM OVC044 07/M03 A2977 RMK AO2 SLP084
                 T00721033 =
2018-10-21 11:56 METAR KSFM 211556Z AUTO 30012G18KT 280V340 10SM BKN042 08/M02 A2976 RMK AO2
                 SLP083 T00781022 =
2018-10-21 10:56 METAR KSFM 211456Z AUTO 30011KT 10SM BKN036 07/M01 A2976 RMK AO2 SLP082
                 T00671006 51021 =
2018-10-21 10:19 METAR KSFM 211419Z AUTO 33011G15KT 10SM FEW002 07/M02 A2975 RMK AO2 =
2018-10-21 09:56 METAR KSFM 211356Z AUTO 32009G14KT 290V360 10SM CLR 07/M01 A2975 RMK AO2 SLP079
                 T00671011 =
2018-10-21 08:56 METAR KSFM 211256Z AUTO 36006KT 10SM SCT100 07/00 A2973 RMK AO2 SLP072 T00670000
                 =
2018-10-21 07:56 METAR KSFM 211156Z AUTO 00000KT 10SM OVC065 04/02 A2969 RMK AO2 SLP060 60004
                 70004 T00440022 10072 20039 53030 =
2018-10-21 06:56 METAR KSFM 211056Z AUTO 00000KT 10SM BKN075 OVC090 06/00 A2965 RMK AO2 SLP045
                 P0002 T00610000 =
2018-10-21 05:56 METAR KSFM 210956Z AUTO 00000KT 10SM OVC100 04/03 A2963 RMK AO2 SLP037 P0002
                 T00440028 =
2018-10-21 04:56 METAR KSFM 210856Z AUTO 32004KT 10SM OVC100 06/02 A2960 RMK AO2 SLP029 T00610017
                 53011 =
2018-10-21 03:56 METAR KSFM 210756Z AUTO 00000KT 10SM OVC110 04/03 A2958 RMK AO2 SLP020 T00390028
                 =
2018-10-21 02:56 METAR KSFM 210656Z AUTO 00000KT 10SM OVC110 04/03 A2958 RMK AO2 SLP019 T00390028
                 =
2018-10-21 01:56 METAR KSFM 210556Z AUTO 33008KT 10SM OVC100 07/02 A2957 RMK AO2 SLP016 T00720022
                 10072 21011 53001 =
2018-10-21 00:56 METAR KSFM 210456Z AUTO 00000KT 10SM CLR 00/M01 A2956 RMK AO2 SLP012 T00001006
                 FZRANO =
2018-10-20 23:56 METAR KSFM 210356Z AUTO 26003KT 10SM CLR 00/M01 A2956 RMK AO2 SLP015 T00001006
                 401780000 FZRANO =
2018-10-20 22:56 METAR KSFM 210256Z AUTO 27004KT 10SM CLR 00/00 A2957 RMK AO2 SLP016 T00000000
                 53008 FZRANO =

Support USWX by starting your Amazon purchase here.